Time;durP1;ratioP1;P1;durP2;ratioP2;P2;SDS_P1;SDS_P2;PMS_P1;PMS_P2;Temp;Humidity;BMP_temperature;BMP_pressure;BME280_temperature;BME280_humidity;BME280_pressure;Samples;Min_cycle;Max_cycle;Signal;HPM_P1;HPM_P2
2024/01/07 00:01:11;;;;;;;;;5.50;5.00;;;;;-144.24;100.00;111267.09;5052730;28;65018;-72
2024/01/07 00:03:36;;;;;;;;;3.50;3.00;;;;;-144.24;100.00;111401.47;5069205;28;46078;-71
2024/01/07 00:06:02;;;;;;;;;5.50;2.25;;;;;-144.24;100.00;111454.41;5079783;27;45364;-74
2024/01/07 00:08:27;;;;;;;;;3.50;3.00;;;;;-144.24;100.00;111513.44;5065837;28;45527;-72
2024/01/07 00:10:52;;;;;;;;;3.00;3.00;;;;;-144.24;100.00;111692.59;5082048;27;65613;-71
2024/01/07 00:13:18;;;;;;;;;2.00;2.00;;;;;-144.24;100.00;111712.97;5066184;28;70830;-71
2024/01/07 00:15:43;;;;;;;;;4.00;2.00;;;;;-144.24;100.00;111798.47;5069772;28;45464;-71
2024/01/07 00:18:08;;;;;;;;;4.33;2.00;;;;;-144.24;100.00;111869.75;5068723;28;58133;-72
2024/01/07 00:20:34;;;;;;;;;6.25;1.75;;;;;-144.24;100.00;111953.22;5070359;28;52453;-72
2024/01/07 00:22:59;;;;;;;;;2.00;2.00;;;;;-144.24;100.00;112219.97;5065807;28;45882;-72
2024/01/07 00:25:24;;;;;;;;;1.25;1.25;;;;;-144.24;100.00;112283.09;5043578;28;46330;-72
2024/01/07 00:27:51;;;;;;;;;3.50;3.00;;;;;-144.24;100.00;112478.56;5054576;28;64549;-74
2024/01/07 00:30:18;;;;;;;;;2.00;2.00;;;;;-144.24;100.00;112488.75;5077997;27;45375;-73
2024/01/07 00:32:43;;;;;;;;;3.00;1.75;;;;;-144.24;100.00;112560.03;5071439;28;46789;-71
2024/01/07 00:35:08;;;;;;;;;2.00;2.00;;;;;-144.24;100.00;112545.78;5055517;28;45343;-72
2024/01/07 00:37:34;;;;;;;;;1.00;1.00;;;;;-144.24;100.00;112590.56;5054819;28;66002;-72
2024/01/07 00:40:00;;;;;;;;;2.00;2.00;;;;;-144.24;100.00;112610.94;5053604;28;45598;-72
2024/01/07 00:42:26;;;;;;;;;5.50;1.50;;;;;-144.24;100.00;112676.13;5070989;27;46224;-74
2024/01/07 00:44:51;;;;;;;;;1.00;1.00;;;;;-144.24;100.00;112792.19;5053368;28;64378;-73
2024/01/07 00:47:16;;;;;;;;;1.50;1.50;;;;;-144.24;100.00;112949.00;5055510;28;45470;-72
2024/01/07 00:49:42;;;;;;;;;3.25;2.00;;;;;-144.24;100.00;113030.47;5055854;28;62247;-73
2024/01/07 00:52:08;;;;;;;;;2.50;2.00;;;;;-144.24;100.00;113305.44;5054809;28;45741;-71
2024/01/07 00:54:33;;;;;;;;;3.00;1.00;;;;;-144.24;100.00;113403.19;5070692;28;45472;-74
2024/01/07 00:56:59;;;;;;;;;2.00;1.00;;;;;-144.24;100.00;113494.88;5054412;28;68701;-73
2024/01/07 00:59:24;;;;;;;;;2.00;1.00;;;;;-144.24;100.00;113623.19;5070622;28;53046;-73
2024/01/07 01:01:49;;;;;;;;;5.00;1.00;;;;;-144.24;100.00;113686.34;5049903;28;60450;-72
2024/01/07 01:04:15;;;;;;;;;2.00;2.00;;;;;-144.24;100.00;113804.50;5057907;28;71593;-72
2024/01/07 01:06:40;;;;;;;;;1.00;1.00;;;;;-144.24;100.00;113881.91;5061795;28;45380;-74
2024/01/07 01:09:05;;;;;;;;;0.75;0.75;;;;;-144.24;100.00;114034.69;5058037;28;64231;-72
2024/01/07 01:11:31;;;;;;;;;1.00;1.00;;;;;-144.24;100.00;114118.22;5073820;27;71664;-74
2024/01/07 01:13:56;;;;;;;;;1.00;1.00;;;;;-144.24;100.00;114273.03;5058908;28;48522;-72
2024/01/07 01:16:23;;;;;;;;;1.00;1.00;;;;;-144.24;100.00;114366.75;5059293;28;45287;-71
2024/01/07 01:18:49;;;;;;;;;6.00;0.67;;;;;-144.24;100.00;114509.38;5073584;28;45411;-73
2024/01/07 01:21:14;;;;;;;;;5.00;1.00;;;;;-144.24;100.00;114615.31;5074405;27;47094;-73
2024/01/07 01:23:40;;;;;;;;;1.00;1.00;;;;;-144.24;100.00;114709.03;5058193;28;69703;-72
2024/01/07 01:26:05;;;;;;;;;2.75;2.00;;;;;-144.24;100.00;114786.47;5064596;28;64687;-73
2024/01/07 01:28:30;;;;;;;;;2.00;1.00;;;;;-144.24;100.00;114819.06;5058530;28;47275;-72
2024/01/07 01:30:55;;;;;;;;;1.00;1.00;;;;;-144.24;100.00;114865.94;5058266;28;71567;-74
2024/01/07 01:33:21;;;;;;;;;5.00;2.00;;;;;-144.24;100.00;114865.94;5057416;28;67445;-72
2024/01/07 01:35:46;;;;;;;;;1.00;1.00;;;;;-144.24;100.00;114865.94;5059029;28;45337;-73
2024/01/07 01:38:12;;;;;;;;;1.25;1.00;;;;;-144.24;100.00;114865.94;5057502;28;63506;-73
2024/01/07 01:40:38;;;;;;;;;1.00;1.00;;;;;-144.24;100.00;114865.94;5058104;28;45876;-74
2024/01/07 01:43:03;;;;;;;;;3.50;2.00;;;;;-144.24;100.00;114865.94;5058560;28;48542;-71
2024/01/07 01:45:28;;;;;;;;;2.75;2.00;;;;;-144.24;100.00;114865.94;5058384;28;45483;-72
2024/01/07 01:47:54;;;;;;;;;6.25;1.25;;;;;-144.24;100.00;114865.94;5058586;28;53141;-71
2024/01/07 01:50:19;;;;;;;;;2.00;2.00;;;;;-144.24;100.00;114865.94;5058065;28;67042;-73
2024/01/07 01:52:45;;;;;;;;;2.25;2.00;;;;;-144.24;100.00;114865.94;5074212;28;45487;-74
2024/01/07 01:55:11;;;;;;;;;6.00;3.00;;;;;-144.24;100.00;114865.94;5074540;28;45428;-74
2024/01/07 01:57:37;;;;;;;;;1.00;1.00;;;;;-144.24;100.00;114865.94;5058699;28;45619;-73
2024/01/07 02:00:04;;;;;;;;;2.00;2.00;;;;;-144.24;100.00;114865.94;5074135;28;48114;-72
2024/01/07 02:02:31;;;;;;;;;4.00;1.50;;;;;-144.24;100.00;114865.94;5057067;28;45553;-72
2024/01/07 02:04:57;;;;;;;;;1.50;1.50;;;;;-144.24;100.00;114865.94;5074012;28;45206;-74
2024/01/07 02:07:24;;;;;;;;;2.00;2.00;;;;;-144.24;100.00;114865.94;5058992;28;45332;-73
2024/01/07 02:09:49;;;;;;;;;5.00;2.25;;;;;-144.24;100.00;114865.94;5055772;28;45806;-72
2024/01/07 02:12:15;;;;;;;;;1.50;1.00;;;;;-144.24;100.00;114865.94;5057485;28;73183;-72
2024/01/07 02:14:40;;;;;;;;;2.00;2.00;;;;;-144.24;100.00;114865.94;5056811;28;64199;-72
2024/01/07 02:17:05;;;;;;;;;2.00;2.00;;;;;-144.24;100.00;114865.94;5058896;28;45415;-72
2024/01/07 02:19:31;;;;;;;;;10.25;5.00;;;;;-144.24;100.00;114865.94;5056427;28;71147;-71
2024/01/07 02:21:56;;;;;;;;;9.25;4.00;;;;;-144.24;100.00;114865.94;5073369;28;65497;-72
2024/01/07 02:24:22;;;;;;;;;4.00;3.00;;;;;-144.24;100.00;114865.94;5057911;28;45431;-72
2024/01/07 02:26:48;;;;;;;;;2.25;2.25;;;;;-144.24;100.00;114865.94;5057136;28;45647;-73
2024/01/07 02:29:13;;;;;;;;;1.25;1.25;;;;;-144.24;100.00;114865.94;5057389;28;46522;-71
2024/01/07 02:31:38;;;;;;;;;1.00;1.00;;;;;-144.24;100.00;114865.94;5072411;28;69987;-72
2024/01/07 02:34:03;;;;;;;;;1.25;1.00;;;;;-144.24;100.00;114865.94;5056833;28;66626;-71
2024/01/07 02:36:29;;;;;;;;;1.00;1.00;;;;;-144.24;100.00;114865.94;5055490;28;63799;-72
2024/01/07 02:38:54;;;;;;;;;1.00;0.25;;;;;-144.24;100.00;114865.94;5056726;28;64432;-72
2024/01/07 02:41:20;;;;;;;;;0.50;0.50;;;;;-144.24;100.00;114865.94;5056175;28;67825;-71
2024/01/07 02:43:46;;;;;;;;;1.50;1.50;;;;;-144.24;100.00;114865.94;5057521;28;45490;-73
2024/01/07 02:46:11;;;;;;;;;1.50;1.00;;;;;-144.24;100.00;114865.94;5057557;28;45487;-71
2024/01/07 02:48:37;;;;;;;;;3.00;1.00;;;;;-144.24;100.00;114865.94;5056584;28;46775;-72
2024/01/07 02:51:05;;;;;;;;;5.00;1.00;;;;;-144.24;100.00;114865.94;5057244;28;65049;-70
2024/01/07 02:53:30;;;;;;;;;1.00;0.00;;;;;-144.24;100.00;114865.94;5057051;28;45584;-71
2024/01/07 02:55:56;;;;;;;;;4.50;1.00;;;;;-144.24;100.00;114865.94;5057654;28;45325;-74
2024/01/07 02:58:21;;;;;;;;;1.75;0.00;;;;;-144.24;100.00;114865.94;5057592;28;45750;-74
2024/01/07 03:00:46;;;;;;;;;2.00;1.00;;;;;-144.24;100.00;114865.94;5056246;28;70221;-72
2024/01/07 03:03:11;;;;;;;;;1.25;1.00;;;;;-144.24;100.00;114865.94;5057217;28;54269;-74
2024/01/07 03:05:37;;;;;;;;;1.00;1.00;;;;;-144.24;100.00;114865.94;5055645;28;61126;-74
2024/01/07 03:08:02;;;;;;;;;0.00;0.00;;;;;-144.24;100.00;114865.94;5054637;28;75727;-72
2024/01/07 03:10:28;;;;;;;;;0.50;0.50;;;;;-144.24;100.00;114865.94;5056398;28;45490;-74
2024/01/07 03:12:53;;;;;;;;;1.00;1.00;;;;;-144.24;100.00;114865.94;5055698;28;45314;-71
2024/01/07 03:15:18;;;;;;;;;1.00;1.00;;;;;-144.24;100.00;114865.94;5056708;28;45612;-72
2024/01/07 03:17:44;;;;;;;;;0.00;0.00;;;;;-144.24;100.00;114865.94;5054643;28;73394;-72
2024/01/07 03:20:10;;;;;;;;;0.00;0.00;;;;;-144.24;100.00;114865.94;5055564;28;64305;-72
2024/01/07 03:22:35;;;;;;;;;1.50;1.00;;;;;-144.24;100.00;114865.94;5056632;28;45419;-72
2024/01/07 03:25:01;;;;;;;;;1.25;1.00;;;;;-144.24;100.00;114865.94;5055718;28;45487;-74
2024/01/07 03:27:26;;;;;;;;;0.00;0.00;;;;;-144.24;100.00;114865.94;5056772;28;46625;-72
2024/01/07 03:29:52;;;;;;;;;1.00;1.00;;;;;-144.24;100.00;114865.94;5056855;28;45466;-71
2024/01/07 03:32:17;;;;;;;;;0.00;0.00;;;;;-144.24;100.00;114865.94;5055989;28;45491;-73
2024/01/07 03:34:43;;;;;;;;;1.75;0.00;;;;;-144.24;100.00;114865.94;5056530;28;45481;-73
2024/01/07 03:37:08;;;;;;;;;1.00;0.00;;;;;-144.24;100.00;114865.94;5055563;28;65377;-71
2024/01/07 03:39:34;;;;;;;;;0.75;0.75;;;;;-144.24;100.00;114865.94;5055379;28;64273;-72
2024/01/07 03:41:59;;;;;;;;;2.25;1.00;;;;;-144.24;100.00;114865.94;5056538;28;45431;-72
2024/01/07 03:44:25;;;;;;;;;0.75;0.75;;;;;-144.24;100.00;114865.94;5054433;28;45407;-71
2024/01/07 03:46:51;;;;;;;;;1.00;1.00;;;;;-144.24;100.00;114865.94;5054920;28;70915;-73
2024/01/07 03:49:17;;;;;;;;;0.75;0.75;;;;;-144.24;100.00;114865.94;5056580;28;45381;-72
2024/01/07 03:51:43;;;;;;;;;1.00;1.00;;;;;-144.24;100.00;114865.94;5056931;28;45455;-72
2024/01/07 03:54:08;;;;;;;;;1.00;1.00;;;;;-144.24;100.00;114865.94;5056666;28;45459;-72
2024/01/07 03:56:34;;;;;;;;;2.00;1.00;;;;;-144.24;100.00;114865.94;5056563;28;46300;-72
2024/01/07 03:58:59;;;;;;;;;1.00;0.50;;;;;-144.24;100.00;114865.94;5055729;28;64911;-73
2024/01/07 04:01:25;;;;;;;;;2.00;1.00;;;;;-144.24;100.00;114865.94;5055770;28;45226;-73
2024/01/07 04:03:50;;;;;;;;;1.50;1.00;;;;;-144.24;100.00;114865.94;5055977;28;45548;-73
2024/01/07 04:06:16;;;;;;;;;0.00;0.00;;;;;-144.24;100.00;114865.94;5054404;28;75109;-75
2024/01/07 04:08:41;;;;;;;;;0.75;0.00;;;;;-144.24;100.00;114865.94;5057096;28;45305;-72
2024/01/07 04:11:06;;;;;;;;;1.75;0.00;;;;;-144.24;100.00;114865.94;5055277;28;67622;-74
2024/01/07 04:13:32;;;;;;;;;5.00;2.00;;;;;-144.24;100.00;114865.94;5037379;28;64011;-75
2024/01/07 04:15:57;;;;;;;;;4.75;1.00;;;;;-144.24;100.00;114865.94;5056147;28;46780;-76
2024/01/07 04:18:22;;;;;;;;;1.00;1.00;;;;;-144.24;100.00;114865.94;5071559;28;68311;-76
2024/01/07 04:20:48;;;;;;;;;4.50;2.00;;;;;-144.24;100.00;114865.94;5055862;28;65052;-74
2024/01/07 04:23:13;;;;;;;;;1.00;1.00;;;;;-144.24;100.00;114865.94;5055632;28;65343;-74
2024/01/07 04:25:40;;;;;;;;;3.00;1.00;;;;;-144.24;100.00;114865.94;5056361;28;45903;-74
2024/01/07 04:28:06;;;;;;;;;3.00;1.75;;;;;-144.24;100.00;114865.94;5055820;28;45466;-74
2024/01/07 04:30:31;;;;;;;;;2.00;2.00;;;;;-144.24;100.00;114865.94;5055681;28;45297;-74
2024/01/07 04:32:56;;;;;;;;;1.25;1.25;;;;;-144.24;100.00;114865.94;5071958;28;45416;-71
2024/01/07 04:35:22;;;;;;;;;7.00;1.75;;;;;-144.24;100.00;114865.94;5055699;28;62161;-72
2024/01/07 04:37:47;;;;;;;;;1.00;1.00;;;;;-144.24;100.00;114865.94;5053672;28;71432;-73
2024/01/07 04:40:12;;;;;;;;;2.00;2.00;;;;;-144.24;100.00;114865.94;5055814;28;54264;-74
2024/01/07 04:42:38;;;;;;;;;1.75;1.75;;;;;-144.24;100.00;114865.94;5055834;28;45581;-74
2024/01/07 04:45:04;;;;;;;;;7.00;1.25;;;;;-144.24;100.00;114865.94;5054312;28;68640;-71
2024/01/07 04:47:31;;;;;;;;;5.00;1.00;;;;;-144.24;100.00;114865.94;5056190;28;45270;-70
2024/01/07 04:49:57;;;;;;;;;5.00;1.00;;;;;-144.24;100.00;114865.94;5056493;28;45232;-71
2024/01/07 04:52:23;;;;;;;;;2.00;2.00;;;;;-144.24;100.00;114865.94;5054919;28;45409;-73
2024/01/07 04:54:52;;;;;;;;;0.25;0.25;;;;;-144.24;100.00;114865.94;5055411;28;45548;-74
2024/01/07 04:57:18;;;;;;;;;1.00;1.00;;;;;-144.24;100.00;114865.94;5054650;28;45436;-73
2024/01/07 04:59:44;;;;;;;;;1.00;1.00;;;;;-144.24;100.00;114865.94;5055231;28;45505;-76
2024/01/07 05:02:10;;;;;;;;;0.00;0.00;;;;;-144.24;100.00;114865.94;5056412;28;45293;-73
2024/01/07 05:04:35;;;;;;;;;1.75;1.00;;;;;-144.24;100.00;114865.94;5055321;28;45987;-73
2024/01/07 05:07:01;;;;;;;;;1.50;1.00;;;;;-144.24;100.00;114865.94;5071683;28;45419;-73
2024/01/07 05:09:26;;;;;;;;;4.50;2.00;;;;;-144.24;100.00;114865.94;5055375;28;45460;-73
2024/01/07 05:11:51;;;;;;;;;2.50;1.50;;;;;-144.24;100.00;114865.94;5053690;28;45659;-73
2024/01/07 05:14:17;;;;;;;;;2.00;1.00;;;;;-144.24;100.00;114865.94;5055065;28;57175;-74
2024/01/07 05:16:42;;;;;;;;;1.00;1.00;;;;;-144.24;100.00;114865.94;5054622;28;54919;-71
2024/01/07 05:19:07;;;;;;;;;3.25;1.00;;;;;-144.24;100.00;114865.94;5055443;28;45538;-74
2024/01/07 05:21:33;;;;;;;;;2.00;0.25;;;;;-144.24;100.00;114865.94;5054461;28;63630;-73
2024/01/07 05:23:58;;;;;;;;;2.50;1.00;;;;;-144.24;100.00;114865.94;5054028;28;71619;-73
2024/01/07 05:26:23;;;;;;;;;1.00;1.00;;;;;-144.24;100.00;114865.94;5054286;28;61680;-73
2024/01/07 05:28:49;;;;;;;;;0.00;0.00;;;;;-144.24;100.00;114865.94;5055708;28;45584;-73
2024/01/07 05:31:18;;;;;;;;;1.00;1.00;;;;;-144.24;100.00;114865.94;5055457;28;45285;-75
2024/01/07 05:33:46;;;;;;;;;3.00;2.00;;;;;-144.24;100.00;114865.94;5055410;28;46145;-73
2024/01/07 05:36:12;;;;;;;;;1.00;1.00;;;;;-144.24;100.00;114865.94;5052450;28;68364;-73
2024/01/07 05:38:38;;;;;;;;;0.00;0.00;;;;;-144.24;100.00;114865.94;5054147;28;45270;-75
2024/01/07 05:41:03;;;;;;;;;1.00;1.00;;;;;-144.24;100.00;114865.94;5054989;28;45911;-72
2024/01/07 05:43:28;;;;;;;;;2.50;1.25;;;;;-144.24;100.00;114865.94;5054358;28;46692;-74
2024/01/07 05:45:54;;;;;;;;;2.00;2.00;;;;;-144.24;100.00;114865.94;5054932;28;45427;-73
2024/01/07 05:48:21;;;;;;;;;4.25;1.00;;;;;-144.24;100.00;114865.94;5054402;28;49127;-73
2024/01/07 05:50:47;;;;;;;;;1.00;1.00;;;;;-144.24;100.00;114865.94;5063170;28;45521;-74
2024/01/07 05:53:12;;;;;;;;;3.00;0.00;;;;;-144.24;100.00;114865.94;5055559;28;72666;-73
2024/01/07 05:55:37;;;;;;;;;5.50;3.00;;;;;-144.24;100.00;114865.94;5057063;28;70444;-74
2024/01/07 05:58:03;;;;;;;;;2.00;1.00;;;;;-144.24;100.00;114865.94;5058046;28;45317;-72
2024/01/07 06:00:28;;;;;;;;;2.00;1.00;;;;;-144.24;100.00;114865.94;5058896;28;45689;-74
2024/01/07 06:02:53;;;;;;;;;1.00;1.00;;;;;-144.24;100.00;114865.94;5056752;28;70968;-74
2024/01/07 06:05:19;;;;;;;;;3.50;2.00;;;;;-144.24;100.00;114865.94;5056529;28;66395;-76
2024/01/07 06:07:44;;;;;;;;;2.00;2.00;;;;;-144.24;100.00;114865.94;5057551;28;62835;-74
2024/01/07 06:10:09;;;;;;;;;3.00;0.00;;;;;-144.24;100.00;114865.94;5057141;28;64854;-74
2024/01/07 06:12:35;;;;;;;;;1.00;1.00;;;;;-144.24;100.00;114865.94;5057279;28;70474;-75
2024/01/07 06:15:00;;;;;;;;;4.00;1.00;;;;;-144.24;100.00;114865.94;5058013;28;45440;-73
2024/01/07 06:17:25;;;;;;;;;2.50;1.75;;;;;-144.24;100.00;114865.94;5058101;28;46923;-72
2024/01/07 06:19:51;;;;;;;;;4.50;1.00;;;;;-144.24;100.00;114865.94;5058900;28;45397;-74
2024/01/07 06:22:16;;;;;;;;;1.75;0.75;;;;;-144.24;100.00;114865.94;5056682;28;71012;-76
2024/01/07 06:24:41;;;;;;;;;1.00;1.00;;;;;-144.24;100.00;114865.94;5057464;28;71048;-73
2024/01/07 06:27:07;;;;;;;;;2.00;2.00;;;;;-144.24;100.00;114865.94;5057485;28;45392;-75
2024/01/07 06:29:33;;;;;;;;;2.25;1.00;;;;;-144.24;100.00;114865.94;5058614;28;45255;-72
2024/01/07 06:31:59;;;;;;;;;3.00;2.00;;;;;-144.24;100.00;114865.94;5057689;28;46467;-73
2024/01/07 06:34:24;;;;;;;;;2.25;1.00;;;;;-144.24;100.00;114865.94;5057347;28;45497;-73
2024/01/07 06:36:49;;;;;;;;;1.00;1.00;;;;;-144.24;100.00;114865.94;5057858;28;45480;-73
2024/01/07 06:39:15;;;;;;;;;1.00;1.00;;;;;-144.24;100.00;114865.94;5056875;28;45531;-73
2024/01/07 06:41:40;;;;;;;;;1.00;1.00;;;;;-144.24;100.00;114865.94;5057192;28;67636;-74
2024/01/07 06:44:05;;;;;;;;;1.00;1.00;;;;;-144.24;100.00;114865.94;5072222;28;60392;-73
2024/01/07 06:46:31;;;;;;;;;2.00;2.00;;;;;-144.24;100.00;114865.94;5052501;28;66480;-73
2024/01/07 06:48:56;;;;;;;;;3.00;1.50;;;;;-144.24;100.00;114865.94;5056791;28;45389;-73
2024/01/07 06:51:21;;;;;;;;;2.00;2.00;;;;;-144.24;100.00;114865.94;5056565;28;45761;-74
2024/01/07 06:53:47;;;;;;;;;2.00;1.00;;;;;-144.24;100.00;114865.94;5054988;28;67033;-74
2024/01/07 06:56:13;;;;;;;;;6.00;2.00;;;;;-144.24;100.00;114865.94;5057184;28;45475;-73
2024/01/07 06:58:38;;;;;;;;;1.00;1.00;;;;;-144.24;100.00;114865.94;5056234;28;45468;-73
2024/01/07 07:01:06;;;;;;;;;2.25;2.25;;;;;-144.24;100.00;114865.94;5056675;28;69680;-73
2024/01/07 07:03:32;;;;;;;;;5.75;2.25;;;;;-144.24;100.00;114865.94;5056617;28;45544;-75
2024/01/07 07:05:57;;;;;;;;;8.25;5.75;;;;;-144.24;100.00;114865.94;5056851;28;62306;-73
2024/01/07 07:08:22;;;;;;;;;6.50;2.00;;;;;-144.24;100.00;114865.94;5055631;28;64809;-75
2024/01/07 07:10:48;;;;;;;;;3.50;2.00;;;;;-144.24;100.00;114865.94;5072215;28;72249;-73
2024/01/07 07:13:14;;;;;;;;;2.00;1.00;;;;;-144.24;100.00;114865.94;5071155;28;73822;-74
2024/01/07 07:15:39;;;;;;;;;2.00;1.00;;;;;-144.24;100.00;114865.94;5056284;28;45423;-73
2024/01/07 07:18:05;;;;;;;;;5.50;2.25;;;;;-144.24;100.00;114865.94;5057651;28;45452;-74
2024/01/07 07:20:30;;;;;;;;;5.00;2.00;;;;;-144.24;100.00;114865.94;5055971;28;72741;-74
2024/01/07 07:22:55;;;;;;;;;3.00;3.00;;;;;-144.24;100.00;114865.94;5071736;28;67239;-73
2024/01/07 07:25:21;;;;;;;;;5.00;3.00;;;;;-144.24;100.00;114865.94;5056579;28;65258;-75
2024/01/07 07:27:46;;;;;;;;;2.25;2.25;;;;;-144.24;100.00;114865.94;5057083;28;45585;-74
2024/01/07 07:30:12;;;;;;;;;7.00;3.00;;;;;-144.24;100.00;114865.94;5057256;28;46514;-72
2024/01/07 07:32:40;;;;;;;;;6.75;5.00;;;;;-144.24;100.00;114865.94;5056287;28;45356;-73
2024/01/07 07:35:07;;;;;;;;;4.00;4.00;;;;;-144.24;100.00;114865.94;5072105;28;45507;-73
2024/01/07 07:37:32;;;;;;;;;5.25;3.50;;;;;-144.24;100.00;114865.94;5056776;28;45238;-74
2024/01/07 07:39:57;;;;;;;;;5.00;5.00;;;;;-144.24;100.00;114865.94;5049945;28;73088;-71
2024/01/07 07:42:23;;;;;;;;;3.50;2.50;;;;;-144.24;100.00;114865.94;5047243;28;69896;-73
2024/01/07 07:44:48;;;;;;;;;4.00;2.00;;;;;-144.24;100.00;114865.94;5054071;28;65405;-73
2024/01/07 07:47:15;;;;;;;;;5.50;2.25;;;;;-144.24;100.00;114865.94;5056577;28;45586;-75
2024/01/07 07:49:40;;;;;;;;;2.00;2.00;;;;;-144.24;100.00;114865.94;5056227;28;46794;-74
2024/01/07 07:52:08;;;;;;;;;6.25;3.00;;;;;-144.24;100.00;114865.94;5055589;28;69736;-73
2024/01/07 07:54:34;;;;;;;;;2.50;2.50;;;;;-144.24;100.00;114865.94;5056326;28;45465;-73
2024/01/07 07:56:59;;;;;;;;;7.00;3.00;;;;;-144.24;100.00;114865.94;5055435;28;66506;-72
2024/01/07 07:59:25;;;;;;;;;2.25;2.25;;;;;-144.24;100.00;114865.94;5054117;28;73452;-73
2024/01/07 08:01:50;;;;;;;;;2.00;2.00;;;;;-144.24;100.00;114865.94;5054648;28;69451;-73
2024/01/07 08:04:15;;;;;;;;;3.00;3.00;;;;;-144.24;100.00;114865.94;5055225;28;53856;-72
2024/01/07 08:06:42;;;;;;;;;5.50;5.25;;;;;-144.24;100.00;114865.94;5054977;28;45413;-73
2024/01/07 08:09:08;;;;;;;;;2.50;2.50;;;;;-144.24;100.00;114865.94;5056141;28;45422;-72
2024/01/07 08:11:33;;;;;;;;;4.50;4.50;;;;;-144.24;100.00;114865.94;5054998;28;45456;-74
2024/01/07 08:13:59;;;;;;;;;3.50;3.50;;;;;-144.24;100.00;114865.94;5053986;28;45495;-74
2024/01/07 08:16:24;;;;;;;;;11.75;6.00;;;;;-144.24;100.00;114865.94;5053709;28;45671;-73
2024/01/07 08:18:49;;;;;;;;;11.25;8.00;;;;;-144.24;100.00;114865.94;5051813;28;45904;-72
2024/01/07 08:21:15;;;;;;;;;10.25;7.00;;;;;-144.24;100.00;114865.94;5054797;28;70034;-74
2024/01/07 08:23:40;;;;;;;;;7.50;7.50;;;;;-144.24;100.00;114865.94;5054540;28;62738;-72
2024/01/07 08:26:05;;;;;;;;;10.00;6.75;;;;;-144.24;100.00;114865.94;5053757;28;58526;-72
2024/01/07 08:28:31;;;;;;;;;5.50;5.50;;;;;-144.24;100.00;114865.94;5054262;28;62368;-72
2024/01/07 08:30:56;;;;;;;;;9.00;5.00;;;;;-144.24;100.00;114865.94;5054517;28;62949;-73
2024/01/07 08:33:21;;;;;;;;;7.00;5.00;;;;;-144.24;100.00;114865.94;5052467;28;68015;-71
2024/01/07 08:35:47;;;;;;;;;5.00;3.00;;;;;-144.24;100.00;114865.94;5052529;28;59760;-71
2024/01/07 08:38:12;;;;;;;;;5.25;5.25;;;;;-144.24;100.00;114865.94;5054360;28;45820;-73
2024/01/07 08:40:39;;;;;;;;;5.00;5.00;;;;;-144.24;100.00;114865.94;5056195;28;45340;-73
2024/01/07 08:43:04;;;;;;;;;9.25;6.75;;;;;-144.24;100.00;114865.94;5046301;28;45447;-71
2024/01/07 08:45:30;;;;;;;;;5.50;5.25;;;;;-144.24;100.00;114865.94;5056115;28;46171;-73
2024/01/07 08:47:55;;;;;;;;;10.00;5.25;;;;;-144.24;100.00;114865.94;5054820;28;63465;-71
2024/01/07 08:50:20;;;;;;;;;5.50;3.00;;;;;-144.24;100.00;114865.94;5054812;28;68889;-73
2024/01/07 08:52:47;;;;;;;;;9.25;7.00;;;;;-144.24;100.00;114865.94;5055672;28;47703;-72
2024/01/07 08:55:12;;;;;;;;;6.25;5.00;;;;;-144.24;100.00;114865.94;5055501;28;45503;-73
2024/01/07 08:57:38;;;;;;;;;5.00;2.25;;;;;-144.24;100.00;114865.94;5055936;28;46066;-71
2024/01/07 09:00:05;;;;;;;;;12.50;11.75;;;;;-144.24;100.00;114865.94;5037434;28;45509;-72
2024/01/07 09:02:30;;;;;;;;;12.75;11.00;;;;;-144.24;100.00;114865.94;5055979;28;45498;-73
2024/01/07 09:04:57;;;;;;;;;8.25;7.25;;;;;-144.24;100.00;114865.94;5054144;28;65705;-72
2024/01/07 09:07:23;;;;;;;;;6.00;6.00;;;;;-144.24;100.00;114865.94;5055531;28;45915;-71
2024/01/07 09:09:48;;;;;;;;;6.25;6.25;;;;;-144.24;100.00;114865.94;5054894;28;57608;-72
2024/01/07 09:12:13;;;;;;;;;12.25;8.25;;;;;-144.24;100.00;114865.94;5054961;28;45482;-73
2024/01/07 09:14:39;;;;;;;;;8.25;8.25;;;;;-144.24;100.00;114865.94;5066475;28;45400;-72
2024/01/07 09:17:04;;;;;;;;;10.50;10.50;;;;;-144.24;100.00;114865.94;5054705;28;59906;-72
2024/01/07 09:19:29;;;;;;;;;8.25;7.75;;;;;-144.24;100.00;114865.94;5053893;28;65239;-74
2024/01/07 09:21:55;;;;;;;;;9.50;7.50;;;;;-144.24;100.00;114865.94;5054146;28;48067;-71
2024/01/07 09:24:20;;;;;;;;;17.25;11.75;;;;;-144.24;100.00;114865.94;5052902;28;60014;-72
2024/01/07 09:26:46;;;;;;;;;11.75;11.00;;;;;-144.24;100.00;114865.94;5057034;28;45667;-71
2024/01/07 09:29:11;;;;;;;;;9.00;6.00;;;;;-144.24;100.00;114865.94;5057266;28;45352;-72
2024/01/07 09:31:37;;;;;;;;;9.75;9.75;;;;;-144.24;100.00;114865.94;5057050;28;45250;-74
2024/01/07 09:34:03;;;;;;;;;11.50;9.75;;;;;-144.24;100.00;114865.94;5030947;28;45438;-76
2024/01/07 09:36:29;;;;;;;;;13.75;7.50;;;;;-144.24;100.00;114865.94;5187102;22;46388;-73
2024/01/07 09:38:54;;;;;;;;;9.00;9.00;;;;;-144.24;100.00;114865.94;5065219;28;65004;-72
2024/01/07 09:41:19;;;;;;;;;13.75;9.00;;;;;-144.24;100.00;114865.94;5068563;28;45306;-72
2024/01/07 09:43:45;;;;;;;;;13.75;10.00;;;;;-144.24;100.00;114865.94;5069515;28;54516;-75
2024/01/07 09:46:10;;;;;;;;;12.25;9.00;;;;;-144.24;100.00;114865.94;5070232;28;45436;-71
2024/01/07 09:48:36;;;;;;;;;16.50;10.75;;;;;-144.24;100.00;114865.94;5071634;28;45299;-73
2024/01/07 09:51:02;;;;;;;;;12.75;11.50;;;;;-144.24;100.00;114865.94;5040678;28;45255;-73
2024/01/07 09:53:34;;;;;;;;;10.25;10.00;;;;;-144.24;100.00;114865.94;5049356;28;45510;-73
2024/01/07 09:56:25;;;;;;;;;17.75;12.25;;;;;-144.24;100.00;114865.94;5036988;28;46843;-76
2024/01/07 09:58:50;;;;;;;;;11.25;9.50;;;;;-144.24;100.00;114865.94;5071070;28;45579;-72
2024/01/07 10:01:17;;;;;;;;;11.75;10.50;;;;;-144.24;100.00;114865.94;5044766;28;45383;-74
2024/01/07 10:03:43;;;;;;;;;14.50;10.50;;;;;-144.24;100.00;114865.94;5054071;28;45551;-75
2024/01/07 10:06:08;;;;;;;;;12.75;11.00;;;;;-144.24;100.00;114865.94;5028993;28;46108;-74
2024/01/07 10:08:34;;;;;;;;;19.00;15.00;;;;;-144.24;100.00;114865.94;5039564;28;68481;-76
2024/01/07 10:11:01;;;;;;;;;15.75;15.00;;;;;-144.24;100.00;114865.94;5058435;28;45547;-75
2024/01/07 10:13:26;;;;;;;;;15.25;11.00;;;;;-144.24;100.00;114865.94;5041343;28;45402;-73
2024/01/07 10:15:52;;;;;;;;;14.75;10.25;;;;;-144.24;100.00;114865.94;5051662;28;70577;-74
2024/01/07 10:18:18;;;;;;;;;10.00;10.00;;;;;-144.24;100.00;114865.94;5052163;28;45421;-75
2024/01/07 10:20:43;;;;;;;;;14.50;11.00;;;;;-144.24;100.00;114865.94;5045341;28;45571;-74
2024/01/07 10:23:09;;;;;;;;;10.25;10.25;;;;;-144.24;100.00;114865.94;5031410;28;45484;-73
2024/01/07 10:25:35;;;;;;;;;15.00;13.00;;;;;-144.24;100.00;114865.94;5034309;28;47802;-72
2024/01/07 10:28:01;;;;;;;;;13.00;10.00;;;;;-144.24;100.00;114865.94;5052891;28;71272;-73
2024/01/07 10:30:27;;;;;;;;;15.25;14.75;;;;;-144.24;100.00;114865.94;5035507;28;45682;-73
2024/01/07 10:32:57;;;;;;;;;15.50;13.50;;;;;-144.24;100.00;114865.94;5053603;28;45488;-74
2024/01/07 10:35:27;;;;;;;;;17.50;13.25;;;;;-144.24;100.00;114865.94;5035159;28;45927;-73
2024/01/07 10:37:53;;;;;;;;;17.00;14.75;;;;;-144.24;100.00;114865.94;5038997;28;45587;-74
2024/01/07 10:40:18;;;;;;;;;18.50;13.50;;;;;-144.24;100.00;114865.94;5055037;28;67751;-72
2024/01/07 10:42:44;;;;;;;;;19.75;15.00;;;;;-144.24;100.00;114865.94;5057582;28;48060;-73
2024/01/07 10:45:10;;;;;;;;;18.25;14.75;;;;;-144.24;100.00;114865.94;5039406;28;47860;-75
2024/01/07 10:47:36;;;;;;;;;18.50;13.50;;;;;-144.24;100.00;114865.94;5039386;28;45357;-73
2024/01/07 10:50:02;;;;;;;;;19.50;17.00;;;;;-144.24;100.00;114865.94;5035320;28;64467;-73
2024/01/07 10:52:28;;;;;;;;;18.75;14.75;;;;;-144.24;100.00;114865.94;5040467;28;45678;-73